createdAt,value
2018-08-30T00:01:26.738Z,10.57
2018-08-30T00:03:57.018Z,10.10
2018-08-30T00:06:27.465Z,9.17
2018-08-30T00:08:57.677Z,10.93
2018-08-30T00:11:28.370Z,9.80
2018-08-30T00:13:58.695Z,9.17
2018-08-30T00:16:28.363Z,9.73
2018-08-30T00:18:58.639Z,11.47
2018-08-30T00:21:28.625Z,10.57
2018-08-30T00:23:58.915Z,12.50
2018-08-30T00:26:28.675Z,11.73
2018-08-30T00:28:58.608Z,12.13
2018-08-30T00:31:28.337Z,15.37
2018-08-30T00:33:59.125Z,17.17
2018-08-30T00:36:29.174Z,21.50
2018-08-30T00:38:59.133Z,25.57
2018-08-30T00:41:29.180Z,25.67
2018-08-30T00:43:59.018Z,30.00
2018-08-30T00:46:28.964Z,28.83
2018-08-30T00:48:59.687Z,32.40
2018-08-30T00:51:29.555Z,33.47
2018-08-30T00:53:59.774Z,34.50
2018-08-30T00:56:29.518Z,33.60
2018-08-30T00:58:59.313Z,34.57
2018-08-30T01:01:29.076Z,34.50
2018-08-30T01:03:59.382Z,38.40
2018-08-30T01:06:29.055Z,38.83
2018-08-30T01:08:58.990Z,39.43
2018-08-30T01:11:28.700Z,42.50
2018-08-30T01:13:58.595Z,36.20
2018-08-30T01:16:28.395Z,36.63
2018-08-30T01:18:58.251Z,36.37
2018-08-30T01:21:28.007Z,36.70
2018-08-30T01:23:58.151Z,38.83
2018-08-30T01:26:28.343Z,39.17
2018-08-30T01:28:59.150Z,36.53
2018-08-30T01:31:30.237Z,34.33
2018-08-30T01:34:00.290Z,39.23
2018-08-30T01:36:30.686Z,38.47
2018-08-30T01:39:00.671Z,34.83
2018-08-30T01:41:30.542Z,35.47
2018-08-30T01:44:00.335Z,33.63
2018-08-30T01:46:31.235Z,38.87
2018-08-30T01:49:02.016Z,34.60
2018-08-30T01:51:32.617Z,38.00
2018-08-30T01:54:03.648Z,30.80
2018-08-30T01:56:33.461Z,30.80
2018-08-30T01:59:03.315Z,28.23
2018-08-30T02:01:33.095Z,28.73
2018-08-30T02:04:03.016Z,26.80
2018-08-30T02:06:33.179Z,27.93
2018-08-30T02:09:03.906Z,25.90
2018-08-30T02:11:33.935Z,29.87
2018-08-30T02:14:03.869Z,29.13
2018-08-30T02:16:34.100Z,27.33
2018-08-30T02:19:04.070Z,25.87
2018-08-30T02:21:33.852Z,27.00
2018-08-30T02:24:04.033Z,27.70
2018-08-30T02:26:33.778Z,30.07
2018-08-30T02:29:03.621Z,30.97
2018-08-30T02:31:33.812Z,29.73
2018-08-30T02:34:03.555Z,30.20
2018-08-30T02:36:33.406Z,30.60
2018-08-30T02:39:03.882Z,31.27
2018-08-30T02:41:33.930Z,31.17
2018-08-30T02:44:03.698Z,30.10
2018-08-30T02:46:34.414Z,31.70
2018-08-30T02:49:04.527Z,29.93
2018-08-30T02:51:34.674Z,28.63
2018-08-30T02:54:04.898Z,31.50
2018-08-30T02:56:35.984Z,30.50
2018-08-30T02:59:05.985Z,31.83
2018-08-30T03:01:38.458Z,31.17
2018-08-30T03:04:08.551Z,33.73
2018-08-30T03:06:38.165Z,36.33
2018-08-30T03:09:09.615Z,32.10
2018-08-30T03:11:39.594Z,32.23
2018-08-30T03:14:09.460Z,30.30
2018-08-30T03:16:39.111Z,35.30
2018-08-30T03:19:09.039Z,33.30
2018-08-30T03:21:38.647Z,36.60
2018-08-30T03:28:54.461Z,33.57
2018-08-30T03:31:24.764Z,34.30
2018-08-30T03:33:55.197Z,36.77
2018-08-30T03:36:24.851Z,35.07
2018-08-30T03:38:54.566Z,35.17
2018-08-30T03:41:24.595Z,36.07
2018-08-30T03:43:54.215Z,34.97
2018-08-30T03:46:24.018Z,33.53
2018-08-30T03:48:54.043Z,35.23
2018-08-30T03:51:23.903Z,39.90
2018-08-30T03:53:53.551Z,36.13
2018-08-30T03:56:23.859Z,35.00
2018-08-30T03:58:53.720Z,35.30
2018-08-30T04:01:24.479Z,36.50
2018-08-30T04:03:54.629Z,31.83
2018-08-30T04:06:24.561Z,32.37
2018-08-30T04:08:54.288Z,32.10
2018-08-30T04:11:25.018Z,34.97
2018-08-30T04:13:54.697Z,29.83
2018-08-30T04:16:25.681Z,32.60
2018-08-30T04:18:59.971Z,27.70
2018-08-30T04:21:31.170Z,30.47
2018-08-30T04:24:02.650Z,32.53
2018-08-30T04:26:33.029Z,30.60
2018-08-30T04:29:03.316Z,34.53
2018-08-30T04:31:33.238Z,30.00
2018-08-30T04:34:03.506Z,30.83
2018-08-30T04:36:33.632Z,30.73
2018-08-30T04:39:04.909Z,30.57
2018-08-30T04:41:35.555Z,24.97
2018-08-30T04:44:06.524Z,29.13
2018-08-30T04:46:36.454Z,25.47
2018-08-30T04:49:07.082Z,26.73
2018-08-30T04:51:36.804Z,27.37
2018-08-30T04:54:06.830Z,25.43
2018-08-30T04:56:36.993Z,27.10
2018-08-30T04:59:08.059Z,25.87
2018-08-30T05:01:38.423Z,24.23
2018-08-30T05:04:08.786Z,25.90
2018-08-30T05:06:39.416Z,26.17
2018-08-30T05:09:11.285Z,24.50
2018-08-30T05:11:42.236Z,22.93
2018-08-30T05:14:12.635Z,25.03
2018-08-30T05:16:42.459Z,22.67
2018-08-30T05:19:12.711Z,20.33
2018-08-30T05:21:42.546Z,24.67
2018-08-30T05:24:12.406Z,28.20
2018-08-30T05:26:43.008Z,26.80
2018-08-30T05:29:12.859Z,25.87
2018-08-30T05:31:43.406Z,28.07
2018-08-30T05:34:13.839Z,24.63
2018-08-30T05:36:44.426Z,28.55
2018-08-30T05:39:14.394Z,25.60
2018-08-30T05:41:45.640Z,24.17
2018-08-30T05:44:16.354Z,25.47
2018-08-30T05:46:47.198Z,24.40
2018-08-30T05:49:17.567Z,26.17
2018-08-30T05:51:48.346Z,27.07
2018-08-30T05:54:24.195Z,22.37
2018-08-30T05:56:56.636Z,28.10
2018-08-30T05:59:27.415Z,28.50
2018-08-30T06:01:57.423Z,27.85
2018-08-30T06:04:27.828Z,23.40
2018-08-30T06:06:57.855Z,23.33
2018-08-30T06:09:29.069Z,26.33
2018-08-30T06:11:59.183Z,26.10
2018-08-30T06:14:28.933Z,25.23
2018-08-30T06:17:00.301Z,25.73
2018-08-30T06:19:31.681Z,26.60
2018-08-30T06:22:03.260Z,24.33
2018-08-30T06:24:33.516Z,27.83
2018-08-30T06:27:03.958Z,23.83
2018-08-30T06:29:34.190Z,25.45
2018-08-30T06:32:05.133Z,25.60
2018-08-30T06:34:34.966Z,25.20
2018-08-30T06:37:06.474Z,24.33
2018-08-30T06:39:41.448Z,25.27
2018-08-30T06:42:12.607Z,27.73
2018-08-30T06:44:43.426Z,26.80
2018-08-30T06:47:13.327Z,23.93
2018-08-30T06:49:43.298Z,26.30
2018-08-30T06:52:14.937Z,26.20
2018-08-30T06:54:45.992Z,30.47
2018-08-30T06:57:15.983Z,26.83
2018-08-30T06:59:47.308Z,26.43
2018-08-30T07:02:17.383Z,26.83
2018-08-30T07:04:47.707Z,24.83
2018-08-30T07:07:18.523Z,23.10
2018-08-30T07:09:48.863Z,28.90
2018-08-30T07:12:20.800Z,26.83
2018-08-30T07:14:51.724Z,24.60
2018-08-30T07:17:23.865Z,28.63
2018-08-30T07:19:55.802Z,25.67
2018-08-30T07:22:26.425Z,26.50
2018-08-30T07:24:57.094Z,25.07
2018-08-30T07:27:27.714Z,24.33
2018-08-30T07:30:08.258Z,27.60
2018-08-30T07:32:45.080Z,23.80
2018-08-30T07:35:16.675Z,24.87
2018-08-30T07:37:49.215Z,21.47
2018-08-30T07:40:41.131Z,26.47
2018-08-30T07:43:22.739Z,22.43
2018-08-30T07:46:14.876Z,21.47
2018-08-30T07:52:09.003Z,22.27
2018-08-30T07:55:05.376Z,19.10
2018-08-30T07:57:46.066Z,21.37
2018-08-30T08:00:25.884Z,20.87
2018-08-30T08:03:12.604Z,20.60
2018-08-30T08:05:59.925Z,20.60
2018-08-30T08:08:53.075Z,18.03
2018-08-30T08:11:36.333Z,18.07
2018-08-30T08:17:32.852Z,18.90
2018-08-30T08:20:19.882Z,18.37
2018-08-30T08:22:58.614Z,16.67
2018-08-30T08:25:40.709Z,15.83
2018-08-30T08:28:24.801Z,12.93
2018-08-30T08:31:07.664Z,13.20
2018-08-30T08:33:48.541Z,14.93
2018-08-30T08:36:26.797Z,13.70
2018-08-30T08:39:12.740Z,15.43
2018-08-30T08:41:55.092Z,12.27
2018-08-30T08:44:28.708Z,11.77
2018-08-30T08:47:04.832Z,12.23
2018-08-30T08:49:39.949Z,14.47
2018-08-30T08:52:25.078Z,13.60
2018-08-30T08:54:59.700Z,13.20
2018-08-30T08:57:35.153Z,11.17
2018-08-30T09:03:18.936Z,10.60
2018-08-30T09:05:53.288Z,10.70
2018-08-30T09:08:36.756Z,12.33
2018-08-30T09:11:17.002Z,10.43
2018-08-30T09:15:14.233Z,8.47
2018-08-30T09:17:49.308Z,8.17
2018-08-30T09:20:23.295Z,10.97
2018-08-30T09:23:02.076Z,9.80
2018-08-30T09:25:36.589Z,7.73
2018-08-30T09:28:11.196Z,9.03
2018-08-30T09:30:48.103Z,8.13
2018-08-30T09:33:19.653Z,9.47
2018-08-30T09:35:50.796Z,6.43
2018-08-30T09:38:28.089Z,8.57
2018-08-30T09:40:59.485Z,6.70
2018-08-30T09:44:04.782Z,13.17
2018-08-30T09:46:37.224Z,9.03
2018-08-30T09:49:12.513Z,7.70
2018-08-30T09:51:44.938Z,6.97
2018-08-30T09:54:15.465Z,7.17
2018-08-30T09:56:46.199Z,7.10
2018-08-30T09:59:27.465Z,7.13
2018-08-30T10:02:02.288Z,5.83
2018-08-30T10:04:33.522Z,7.40
2018-08-30T10:07:05.515Z,7.23
2018-08-30T10:09:39.743Z,11.70
2018-08-30T10:12:23.212Z,7.40
2018-08-30T10:14:56.804Z,5.30
2018-08-30T10:17:42.929Z,4.20
2018-08-30T10:20:27.771Z,5.70
2018-08-30T10:23:03.099Z,7.10
2018-08-30T10:25:45.546Z,5.27
2018-08-30T10:28:17.128Z,5.90
2018-08-30T10:30:48.140Z,5.07
2018-08-30T10:33:22.307Z,5.77
2018-08-30T10:35:58.938Z,7.10
2018-08-30T10:38:30.870Z,4.20
2018-08-30T10:41:01.775Z,5.17
2018-08-30T10:43:37.856Z,5.77
2018-08-30T10:46:10.641Z,4.87
2018-08-30T10:48:41.263Z,5.97
2018-08-30T10:51:14.104Z,5.07
2018-08-30T10:53:45.864Z,6.40
2018-08-30T10:56:18.118Z,4.50
2018-08-30T10:58:53.268Z,3.87
2018-08-30T11:01:25.234Z,6.13
2018-08-30T11:03:58.605Z,5.17
2018-08-30T11:06:29.747Z,3.90
2018-08-30T11:09:03.673Z,4.13
2018-08-30T11:11:35.489Z,5.57
2018-08-30T11:14:06.628Z,5.20
2018-08-30T11:16:38.256Z,5.13
2018-08-30T11:19:09.580Z,7.57
2018-08-30T11:21:40.407Z,6.37
2018-08-30T11:24:12.294Z,4.83
2018-08-30T11:26:45.216Z,5.47
2018-08-30T11:29:15.632Z,5.30
2018-08-30T11:31:49.554Z,3.53
2018-08-30T11:34:20.369Z,7.97
2018-08-30T11:36:56.942Z,4.67
2018-08-30T11:39:27.736Z,5.63
2018-08-30T11:42:00.028Z,4.20
2018-08-30T11:44:30.433Z,3.87
2018-08-30T11:47:11.263Z,6.07
2018-08-30T11:49:43.053Z,6.57
2018-08-30T11:52:14.296Z,7.93
2018-08-30T11:54:45.709Z,2.87
2018-08-30T11:57:18.000Z,4.43
2018-08-30T11:59:53.047Z,5.30
2018-08-30T12:02:23.299Z,7.17
2018-08-30T12:04:54.413Z,5.03
2018-08-30T12:07:32.114Z,6.40
2018-08-30T12:10:09.303Z,9.17
2018-08-30T12:12:41.312Z,4.63
2018-08-30T12:15:11.775Z,6.53
2018-08-30T12:17:43.432Z,4.40
2018-08-30T12:20:16.169Z,4.57
2018-08-30T12:22:46.525Z,5.73
2018-08-30T12:25:21.220Z,6.20
2018-08-30T12:27:54.995Z,3.97
2018-08-30T12:30:25.887Z,4.23
2018-08-30T12:32:58.175Z,5.93
2018-08-30T12:35:29.963Z,3.20
2018-08-30T12:38:02.224Z,5.53
2018-08-30T12:40:34.218Z,8.13
2018-08-30T12:43:06.299Z,9.07
2018-08-30T12:45:38.574Z,3.80
2018-08-30T12:48:09.398Z,4.47
2018-08-30T12:50:43.930Z,3.67
2018-08-30T12:53:15.124Z,3.10
2018-08-30T12:55:47.984Z,6.47
2018-08-30T12:58:19.391Z,6.00
2018-08-30T13:00:53.626Z,5.17
2018-08-30T13:03:24.148Z,5.20
2018-08-30T13:05:56.032Z,4.90
2018-08-30T13:08:26.767Z,6.03
2018-08-30T13:10:58.834Z,3.37
2018-08-30T13:13:32.131Z,4.73
2018-08-30T13:16:06.204Z,5.37
2018-08-30T13:18:38.807Z,5.20
2018-08-30T13:21:09.172Z,5.60
2018-08-30T13:23:39.425Z,8.17
2018-08-30T13:26:10.361Z,7.53
2018-08-30T13:28:41.463Z,4.63
2018-08-30T13:31:12.141Z,6.23
2018-08-30T13:33:45.439Z,7.50
2018-08-30T13:36:18.192Z,5.80
2018-08-30T13:38:49.961Z,2.53
2018-08-30T13:41:20.960Z,4.87
2018-08-30T13:43:52.696Z,6.80
2018-08-30T13:46:23.950Z,6.50
2018-08-30T13:48:59.261Z,4.27
2018-08-30T13:51:32.059Z,6.83
2018-08-30T13:54:07.185Z,4.20
2018-08-30T13:56:37.924Z,5.97
2018-08-30T13:59:09.638Z,5.87
2018-08-30T14:01:52.561Z,9.50
2018-08-30T14:04:24.227Z,4.23
2018-08-30T14:06:55.648Z,4.60
2018-08-30T14:09:27.300Z,6.47
2018-08-30T14:11:58.286Z,4.60
2018-08-30T14:14:33.165Z,4.70
2018-08-30T14:17:04.198Z,3.63
2018-08-30T14:19:34.486Z,7.67
2018-08-30T14:22:07.150Z,6.27
2018-08-30T14:24:45.421Z,5.63
2018-08-30T14:27:18.227Z,4.87
2018-08-30T14:29:48.992Z,5.23
2018-08-30T14:32:19.512Z,3.67
2018-08-30T14:34:54.877Z,6.67
2018-08-30T14:37:26.346Z,7.87
2018-08-30T14:39:57.220Z,4.30
2018-08-30T14:42:29.079Z,3.63
2018-08-30T14:45:15.123Z,4.20
2018-08-30T14:47:55.916Z,6.53
2018-08-30T14:50:40.092Z,5.17
2018-08-30T14:53:13.686Z,5.53
2018-08-30T14:55:49.306Z,3.27
2018-08-30T14:58:21.807Z,4.97
2018-08-30T15:00:53.566Z,7.17
2018-08-30T15:03:27.709Z,3.87
2018-08-30T15:05:59.296Z,7.23
2018-08-30T15:08:31.647Z,7.60
2018-08-30T15:11:04.622Z,5.53
2018-08-30T15:13:36.829Z,5.07
2018-08-30T15:16:07.672Z,6.13
2018-08-30T15:18:39.823Z,5.27
2018-08-30T15:21:11.772Z,5.47
2018-08-30T15:23:43.168Z,6.97
2018-08-30T15:26:13.296Z,6.60
2018-08-30T15:28:50.603Z,6.17
2018-08-30T15:31:22.159Z,6.57
2018-08-30T15:33:53.215Z,7.37
2018-08-30T15:36:27.595Z,7.63
2018-08-30T15:38:58.632Z,4.83
2018-08-30T15:41:29.717Z,4.30
2018-08-30T15:43:59.769Z,6.50
2018-08-30T15:46:31.323Z,6.27
2018-08-30T15:49:03.951Z,5.30
2018-08-30T15:51:37.628Z,7.10
2018-08-30T15:54:10.848Z,7.57
2018-08-30T15:56:41.261Z,4.97
2018-08-30T15:59:14.733Z,7.23
2018-08-30T16:01:45.809Z,5.73
2018-08-30T16:04:16.745Z,6.10
2018-08-30T16:06:49.823Z,5.33
2018-08-30T16:09:20.050Z,4.97
2018-08-30T16:11:50.816Z,6.17
2018-08-30T16:14:22.189Z,5.40
2018-08-30T16:16:52.191Z,5.90
2018-08-30T16:19:22.585Z,5.30
2018-08-30T16:21:52.852Z,6.30
2018-08-30T16:24:23.555Z,5.73
2018-08-30T16:26:54.778Z,3.97
2018-08-30T16:29:25.553Z,5.43
2018-08-30T16:31:56.688Z,7.20
2018-08-30T16:34:27.204Z,6.03
2018-08-30T16:36:57.474Z,4.83
2018-08-30T16:39:28.671Z,8.73
2018-08-30T16:41:58.715Z,11.27
2018-08-30T16:44:28.679Z,5.93
2018-08-30T16:47:00.324Z,4.00
2018-08-30T16:49:33.727Z,6.00
2018-08-30T16:52:06.644Z,6.47
2018-08-30T16:54:37.080Z,6.87
2018-08-30T16:57:08.442Z,5.60
2018-08-30T16:59:41.622Z,5.73
2018-08-30T17:02:12.705Z,7.00
2018-08-30T17:04:43.364Z,3.83
2018-08-30T17:07:14.501Z,8.13
2018-08-30T17:09:47.536Z,6.43
2018-08-30T17:12:18.557Z,7.40
2018-08-30T17:14:50.636Z,6.37
2018-08-30T17:17:22.296Z,4.77
2018-08-30T17:19:52.831Z,8.60
2018-08-30T17:22:23.199Z,7.13
2018-08-30T17:25:07.647Z,4.67
2018-08-30T17:27:39.295Z,8.37
2018-08-30T17:30:12.468Z,4.00
2018-08-30T17:32:42.759Z,4.17
2018-08-30T17:35:13.302Z,5.73
2018-08-30T17:37:44.907Z,4.70
2018-08-30T17:40:17.080Z,4.70
2018-08-30T17:42:50.563Z,3.47
2018-08-30T17:45:26.500Z,4.87
2018-08-30T17:47:57.204Z,7.40
2018-08-30T17:50:27.611Z,6.57
2018-08-30T17:52:58.570Z,6.23
2018-08-30T17:55:33.171Z,6.13
2018-08-30T17:58:05.211Z,3.30
2018-08-30T18:00:39.691Z,5.63
2018-08-30T18:03:11.860Z,5.80
2018-08-30T18:05:47.576Z,6.63
2018-08-30T18:08:20.050Z,5.93
2018-08-30T18:10:50.746Z,5.03
2018-08-30T18:13:23.929Z,5.17
2018-08-30T18:15:56.298Z,4.27
2018-08-30T18:18:28.497Z,5.17
2018-08-30T18:21:02.104Z,6.60
2018-08-30T18:23:34.218Z,5.47
2018-08-30T18:26:13.650Z,3.13
2018-08-30T18:28:45.330Z,4.70
2018-08-30T18:31:17.958Z,3.33
2018-08-30T18:33:49.079Z,4.80
2018-08-30T18:36:19.582Z,5.30
2018-08-30T18:38:49.966Z,5.30
2018-08-30T18:41:21.722Z,3.97
2018-08-30T18:43:53.003Z,5.60
2018-08-30T18:46:23.678Z,7.37
2018-08-30T18:48:56.213Z,4.97
2018-08-30T18:51:26.804Z,4.73
2018-08-30T18:53:59.503Z,4.03
2018-08-30T18:56:32.706Z,7.20
2018-08-30T18:59:03.801Z,6.27
2018-08-30T19:01:35.482Z,4.97
2018-08-30T19:04:10.207Z,5.23
2018-08-30T19:06:41.980Z,6.23
2018-08-30T19:09:13.100Z,5.60
2018-08-30T19:11:43.945Z,4.13
2018-08-30T19:14:16.252Z,4.33
2018-08-30T19:16:51.766Z,3.23
2018-08-30T19:19:25.976Z,6.17
2018-08-30T19:21:58.813Z,5.83
2018-08-30T19:24:34.252Z,4.63
2018-08-30T19:27:07.775Z,5.37
2018-08-30T19:29:44.319Z,32.23
2018-08-30T19:32:19.238Z,7.20
2018-08-30T19:34:54.576Z,6.17
2018-08-30T19:37:25.237Z,5.07
2018-08-30T19:39:57.707Z,5.03
2018-08-30T19:42:28.451Z,6.07
2018-08-30T19:45:04.108Z,4.30
2018-08-30T19:47:35.785Z,4.90
2018-08-30T19:50:08.634Z,5.37
2018-08-30T19:52:38.778Z,4.53
2018-08-30T19:55:10.172Z,4.37
2018-08-30T19:57:41.553Z,3.93
2018-08-30T20:00:16.997Z,4.57
2018-08-30T20:02:51.983Z,5.27
2018-08-30T20:05:24.088Z,4.43
2018-08-30T20:07:55.504Z,4.30
2018-08-30T20:10:30.197Z,5.40
2018-08-30T20:13:01.164Z,7.30
2018-08-30T20:15:33.038Z,5.20
2018-08-30T20:18:06.264Z,5.03
2018-08-30T20:20:39.755Z,4.67
2018-08-30T20:23:12.103Z,6.80
2018-08-30T20:25:43.332Z,8.60
2018-08-30T20:28:13.437Z,5.67
2018-08-30T20:30:44.451Z,10.40
2018-08-30T20:33:15.449Z,4.60
2018-08-30T20:35:49.783Z,5.20
2018-08-30T20:38:23.652Z,4.67
2018-08-30T20:40:57.940Z,6.20
2018-08-30T20:43:30.431Z,3.70
2018-08-30T20:46:01.164Z,4.33
2018-08-30T20:48:31.752Z,6.03
2018-08-30T20:51:06.103Z,6.40
2018-08-30T20:53:36.232Z,4.70
2018-08-30T20:56:07.408Z,4.90
2018-08-30T20:58:45.318Z,4.93
2018-08-30T21:01:16.812Z,4.77
2018-08-30T21:03:50.849Z,5.57
2018-08-30T21:06:21.710Z,3.67
2018-08-30T21:08:52.469Z,4.87
2018-08-30T21:11:27.643Z,5.00
2018-08-30T21:13:59.091Z,3.13
2018-08-30T21:16:31.803Z,4.67
2018-08-30T21:19:02.680Z,3.47
2018-08-30T21:21:32.868Z,3.70
2018-08-30T21:24:03.236Z,5.47
2018-08-30T21:26:34.866Z,6.20
2018-08-30T21:29:06.537Z,4.37
2018-08-30T21:31:36.642Z,4.27
2018-08-30T21:34:10.777Z,5.80
2018-08-30T21:36:42.607Z,7.07
2018-08-30T21:39:13.830Z,3.57
2018-08-30T21:41:44.964Z,4.30
2018-08-30T21:44:15.237Z,5.50
2018-08-30T21:46:49.340Z,5.20
2018-08-30T21:49:20.002Z,4.37
2018-08-30T21:51:50.292Z,4.40
2018-08-30T21:54:20.965Z,3.23
2018-08-30T21:56:55.761Z,4.73
2018-08-30T21:59:26.247Z,4.57
2018-08-30T22:01:56.198Z,4.93
2018-08-30T22:04:29.152Z,5.80
2018-08-30T22:07:02.450Z,4.53
2018-08-30T22:09:33.317Z,7.10
2018-08-30T22:12:04.462Z,8.13
2018-08-30T22:14:35.318Z,3.47
2018-08-30T22:17:07.270Z,3.73
2018-08-30T22:19:37.181Z,4.67
2018-08-30T22:22:07.392Z,3.60
2018-08-30T22:24:39.487Z,2.93
2018-08-30T22:27:09.682Z,4.60
2018-08-30T22:29:39.833Z,6.23
2018-08-30T22:32:09.757Z,4.30
2018-08-30T22:34:39.558Z,4.73
2018-08-30T22:37:10.902Z,2.53
2018-08-30T22:39:40.819Z,4.37
2018-08-30T22:42:10.459Z,3.97
2018-08-30T22:44:40.678Z,5.43
2018-08-30T22:47:10.683Z,3.47
2018-08-30T22:49:40.680Z,3.87
2018-08-30T22:52:11.132Z,5.63
2018-08-30T22:54:41.104Z,4.20
2018-08-30T22:57:10.929Z,7.07
2018-08-30T22:59:41.007Z,4.93
2018-08-30T23:02:11.223Z,4.07
2018-08-30T23:04:40.914Z,5.00
2018-08-30T23:07:10.887Z,4.63
2018-08-30T23:09:40.546Z,8.40
2018-08-30T23:12:10.284Z,3.63
2018-08-30T23:14:41.259Z,6.13
2018-08-30T23:17:10.925Z,6.33
2018-08-30T23:19:40.702Z,6.43
2018-08-30T23:22:11.979Z,5.17
2018-08-30T23:24:41.719Z,5.47
2018-08-30T23:27:11.476Z,4.93
2018-08-30T23:29:41.342Z,4.73
2018-08-30T23:32:11.136Z,6.07
2018-08-30T23:34:41.175Z,3.10
2018-08-30T23:37:10.835Z,3.77
2018-08-30T23:39:41.779Z,3.23
2018-08-30T23:42:11.795Z,4.03
2018-08-30T23:44:41.527Z,6.53
2018-08-30T23:47:12.560Z,4.93
2018-08-30T23:49:42.656Z,4.97
2018-08-30T23:52:15.103Z,5.17
2018-08-30T23:54:44.842Z,3.57
2018-08-30T23:57:14.909Z,4.50
2018-08-30T23:59:55.859Z,2.27
